sensor_id;sensor_type;location;lat;lon;timestamp;pressure;altitude;pressure_sealevel;temperature;humidity
6680;BME280;3376;42.664;23.346;2023-06-22T00:02:04;94970.41;;;19.70;100.00
6680;BME280;3376;42.664;23.346;2023-06-22T00:04:30;94953.63;;;19.53;100.00
6680;BME280;3376;42.664;23.346;2023-06-22T00:06:57;94982.97;;;19.68;100.00
6680;BME280;3376;42.664;23.346;2023-06-22T00:09:24;94983.41;;;19.65;100.00
6680;BME280;3376;42.664;23.346;2023-06-22T00:11:50;94985.59;;;19.68;100.00
6680;BME280;3376;42.664;23.346;2023-06-22T00:14:19;94879.44;;;18.97;100.00
6680;BME280;3376;42.664;23.346;2023-06-22T00:16:45;94977.78;;;19.62;100.00
6680;BME280;3376;42.664;23.346;2023-06-22T00:19:14;94981.50;;;19.54;100.00
6680;BME280;3376;42.664;23.346;2023-06-22T00:21:40;94971.00;;;19.54;100.00
6680;BME280;3376;42.664;23.346;2023-06-22T00:24:07;94961.66;;;19.58;100.00
6680;BME280;3376;42.664;23.346;2023-06-22T00:26:34;94962.75;;;19.51;100.00
6680;BME280;3376;42.664;23.346;2023-06-22T00:29:01;94942.31;;;19.35;100.00
6680;BME280;3376;42.664;23.346;2023-06-22T00:31:29;94949.31;;;19.41;100.00
6680;BME280;3376;42.664;23.346;2023-06-22T00:33:56;94948.09;;;19.43;100.00
6680;BME280;3376;42.664;23.346;2023-06-22T00:36:23;94953.75;;;19.40;100.00
6680;BME280;3376;42.664;23.346;2023-06-22T00:38:50;94956.97;;;19.42;100.00
6680;BME280;3376;42.664;23.346;2023-06-22T00:41:17;94953.06;;;19.33;100.00
6680;BME280;3376;42.664;23.346;2023-06-22T00:43:45;94948.81;;;19.32;100.00
6680;BME280;3376;42.664;23.346;2023-06-22T00:46:11;94947.03;;;19.26;100.00
6680;BME280;3376;42.664;23.346;2023-06-22T00:48:40;94945.72;;;19.35;100.00
6680;BME280;3376;42.664;23.346;2023-06-22T00:51:10;94944.19;;;19.28;100.00
6680;BME280;3376;42.664;23.346;2023-06-22T00:53:37;94951.47;;;19.26;100.00
6680;BME280;3376;42.664;23.346;2023-06-22T00:56:04;94950.59;;;19.14;100.00
6680;BME280;3376;42.664;23.346;2023-06-22T00:58:31;94958.84;;;19.17;100.00
6680;BME280;3376;42.664;23.346;2023-06-22T01:00:58;94958.38;;;19.20;100.00
6680;BME280;3376;42.664;23.346;2023-06-22T01:03:26;94955.19;;;19.18;100.00
6680;BME280;3376;42.664;23.346;2023-06-22T01:06:02;94962.69;;;19.15;100.00
6680;BME280;3376;42.664;23.346;2023-06-22T01:08:39;94959.69;;;19.11;100.00
6680;BME280;3376;42.664;23.346;2023-06-22T01:11:12;94963.56;;;19.09;100.00
6680;BME280;3376;42.664;23.346;2023-06-22T01:13:46;94960.13;;;19.08;100.00
6680;BME280;3376;42.664;23.346;2023-06-22T01:16:18;94953.44;;;19.12;100.00
6680;BME280;3376;42.664;23.346;2023-06-22T01:18:47;94949.47;;;19.03;100.00
6680;BME280;3376;42.664;23.346;2023-06-22T01:21:20;94957.28;;;19.10;100.00
6680;BME280;3376;42.664;23.346;2023-06-22T01:23:57;94964.22;;;19.04;100.00
6680;BME280;3376;42.664;23.346;2023-06-22T01:26:36;94952.22;;;18.90;100.00
6680;BME280;3376;42.664;23.346;2023-06-22T01:29:05;94967.53;;;18.93;100.00
6680;BME280;3376;42.664;23.346;2023-06-22T01:31:34;94964.16;;;18.86;100.00
6680;BME280;3376;42.664;23.346;2023-06-22T01:34:03;94974.81;;;18.91;100.00
6680;BME280;3376;42.664;23.346;2023-06-22T01:36:32;94975.53;;;18.80;100.00
6680;BME280;3376;42.664;23.346;2023-06-22T01:39:00;94966.03;;;18.79;100.00
6680;BME280;3376;42.664;23.346;2023-06-22T01:41:29;94920.69;;;18.47;100.00
6680;BME280;3376;42.664;23.346;2023-06-22T01:43:56;94971.28;;;18.79;100.00
6680;BME280;3376;42.664;23.346;2023-06-22T01:46:25;94971.56;;;18.71;100.00
6680;BME280;3376;42.664;23.346;2023-06-22T01:48:52;94964.28;;;18.73;100.00
6680;BME280;3376;42.664;23.346;2023-06-22T01:51:20;94983.66;;;18.72;100.00
6680;BME280;3376;42.664;23.346;2023-06-22T01:53:47;94979.72;;;18.63;100.00
6680;BME280;3376;42.664;23.346;2023-06-22T01:56:16;94957.59;;;18.52;100.00
6680;BME280;3376;42.664;23.346;2023-06-22T01:58:48;94973.88;;;18.61;100.00
6680;BME280;3376;42.664;23.346;2023-06-22T02:01:20;94983.94;;;18.64;100.00
6680;BME280;3376;42.664;23.346;2023-06-22T02:03:57;94985.53;;;18.65;100.00
6680;BME280;3376;42.664;23.346;2023-06-22T02:06:31;94982.13;;;18.64;100.00
6680;BME280;3376;42.664;23.346;2023-06-22T02:09:02;94984.53;;;18.66;100.00
6680;BME280;3376;42.664;23.346;2023-06-22T02:11:33;94987.53;;;18.69;100.00
6680;BME280;3376;42.664;23.346;2023-06-22T02:14:01;94986.41;;;18.59;100.00
6680;BME280;3376;42.664;23.346;2023-06-22T02:16:30;94985.88;;;18.75;100.00
6680;BME280;3376;42.664;23.346;2023-06-22T02:19:01;94975.16;;;18.77;100.00
6680;BME280;3376;42.664;23.346;2023-06-22T02:21:29;94957.97;;;18.56;100.00
6680;BME280;3376;42.664;23.346;2023-06-22T02:23:57;94977.72;;;18.58;100.00
6680;BME280;3376;42.664;23.346;2023-06-22T02:26:25;94988.03;;;18.53;100.00
6680;BME280;3376;42.664;23.346;2023-06-22T02:28:52;94975.81;;;18.41;100.00
6680;BME280;3376;42.664;23.346;2023-06-22T02:31:19;94970.56;;;18.41;100.00
6680;BME280;3376;42.664;23.346;2023-06-22T02:33:46;94967.94;;;18.41;100.00
6680;BME280;3376;42.664;23.346;2023-06-22T02:36:15;94969.50;;;18.48;100.00
6680;BME280;3376;42.664;23.346;2023-06-22T02:38:42;94966.47;;;18.51;100.00
6680;BME280;3376;42.664;23.346;2023-06-22T02:41:13;94973.88;;;18.61;100.00
6680;BME280;3376;42.664;23.346;2023-06-22T02:43:43;94979.28;;;18.66;100.00
6680;BME280;3376;42.664;23.346;2023-06-22T02:46:10;94890.31;;;18.02;100.00
6680;BME280;3376;42.664;23.346;2023-06-22T02:48:38;94990.78;;;18.65;100.00
6680;BME280;3376;42.664;23.346;2023-06-22T02:51:05;94991.81;;;18.64;100.00
6680;BME280;3376;42.664;23.346;2023-06-22T02:53:33;94988.38;;;18.63;100.00
6680;BME280;3376;42.664;23.346;2023-06-22T02:56:01;94990.22;;;18.63;100.00
6680;BME280;3376;42.664;23.346;2023-06-22T02:58:28;94965.25;;;18.54;100.00
6680;BME280;3376;42.664;23.346;2023-06-22T03:00:55;94986.19;;;18.60;100.00
6680;BME280;3376;42.664;23.346;2023-06-22T03:03:22;94975.53;;;18.55;100.00
6680;BME280;3376;42.664;23.346;2023-06-22T03:05:51;94993.25;;;18.60;100.00
6680;BME280;3376;42.664;23.346;2023-06-22T03:08:18;94953.47;;;18.32;100.00
6680;BME280;3376;42.664;23.346;2023-06-22T03:10:46;94988.22;;;18.58;100.00
6680;BME280;3376;42.664;23.346;2023-06-22T03:13:13;94983.94;;;18.64;100.00
6680;BME280;3376;42.664;23.346;2023-06-22T03:15:40;94997.59;;;18.72;100.00
6680;BME280;3376;42.664;23.346;2023-06-22T03:18:06;95004.25;;;18.75;100.00
6680;BME280;3376;42.664;23.346;2023-06-22T03:20:33;95006.03;;;18.81;100.00
6680;BME280;3376;42.664;23.346;2023-06-22T03:23:00;95018.25;;;18.94;100.00
6680;BME280;3376;42.664;23.346;2023-06-22T03:25:27;95016.03;;;18.91;100.00
6680;BME280;3376;42.664;23.346;2023-06-22T03:27:55;95011.00;;;18.89;100.00
6680;BME280;3376;42.664;23.346;2023-06-22T03:30:22;95015.63;;;18.94;100.00
6680;BME280;3376;42.664;23.346;2023-06-22T03:32:48;94993.22;;;18.91;100.00
6680;BME280;3376;42.664;23.346;2023-06-22T03:35:15;95008.66;;;19.06;100.00
6680;BME280;3376;42.664;23.346;2023-06-22T03:37:42;95019.09;;;19.12;100.00
6680;BME280;3376;42.664;23.346;2023-06-22T03:40:09;95020.44;;;19.21;100.00
6680;BME280;3376;42.664;23.346;2023-06-22T03:42:36;94975.41;;;18.93;100.00
6680;BME280;3376;42.664;23.346;2023-06-22T03:45:06;95032.28;;;19.30;100.00
6680;BME280;3376;42.664;23.346;2023-06-22T03:47:33;95011.44;;;19.11;100.00
6680;BME280;3376;42.664;23.346;2023-06-22T03:49:59;95036.31;;;19.33;100.00
6680;BME280;3376;42.664;23.346;2023-06-22T03:52:28;95021.78;;;19.30;100.00
6680;BME280;3376;42.664;23.346;2023-06-22T03:54:55;95038.44;;;19.42;100.00
6680;BME280;3376;42.664;23.346;2023-06-22T03:57:22;95032.09;;;19.25;100.00
6680;BME280;3376;42.664;23.346;2023-06-22T03:59:49;95039.91;;;19.38;100.00
6680;BME280;3376;42.664;23.346;2023-06-22T04:02:17;95037.44;;;19.43;100.00
6680;BME280;3376;42.664;23.346;2023-06-22T04:04:44;95043.00;;;19.53;100.00
6680;BME280;3376;42.664;23.346;2023-06-22T04:07:10;95047.75;;;19.63;100.00
6680;BME280;3376;42.664;23.346;2023-06-22T04:09:37;95047.09;;;19.67;100.00
6680;BME280;3376;42.664;23.346;2023-06-22T04:12:05;95052.72;;;19.71;100.00
6680;BME280;3376;42.664;23.346;2023-06-22T04:14:32;95036.97;;;19.71;100.00
6680;BME280;3376;42.664;23.346;2023-06-22T04:16:58;95026.34;;;19.59;100.00
6680;BME280;3376;42.664;23.346;2023-06-22T04:19:27;95027.16;;;19.60;100.00
6680;BME280;3376;42.664;23.346;2023-06-22T04:21:53;95024.28;;;19.61;100.00
6680;BME280;3376;42.664;23.346;2023-06-22T04:24:20;95002.41;;;19.67;100.00
6680;BME280;3376;42.664;23.346;2023-06-22T04:26:47;95020.50;;;19.93;100.00
6680;BME280;3376;42.664;23.346;2023-06-22T04:29:14;95018.16;;;20.04;100.00
6680;BME280;3376;42.664;23.346;2023-06-22T04:31:41;95019.41;;;20.01;100.00
6680;BME280;3376;42.664;23.346;2023-06-22T04:34:08;94982.66;;;19.95;100.00
6680;BME280;3376;42.664;23.346;2023-06-22T04:36:37;95012.22;;;20.26;100.00
6680;BME280;3376;42.664;23.346;2023-06-22T04:39:05;95016.50;;;20.39;100.00
6680;BME280;3376;42.664;23.346;2023-06-22T04:41:35;95022.28;;;20.59;100.00
6680;BME280;3376;42.664;23.346;2023-06-22T04:44:11;94936.13;;;20.25;100.00
6680;BME280;3376;42.664;23.346;2023-06-22T04:46:39;95023.06;;;20.89;100.00
6680;BME280;3376;42.664;23.346;2023-06-22T04:49:06;95027.47;;;21.07;100.00
6680;BME280;3376;42.664;23.346;2023-06-22T04:51:39;95017.41;;;21.15;100.00
6680;BME280;3376;42.664;23.346;2023-06-22T04:54:07;95008.56;;;20.98;100.00
6680;BME280;3376;42.664;23.346;2023-06-22T04:56:34;95036.09;;;21.25;100.00
6680;BME280;3376;42.664;23.346;2023-06-22T04:59:01;95035.53;;;21.23;100.00
6680;BME280;3376;42.664;23.346;2023-06-22T05:01:28;95046.28;;;21.33;100.00
6680;BME280;3376;42.664;23.346;2023-06-22T05:03:56;95041.13;;;21.27;100.00
6680;BME280;3376;42.664;23.346;2023-06-22T05:06:27;95040.44;;;21.31;100.00
6680;BME280;3376;42.664;23.346;2023-06-22T05:08:56;95047.78;;;21.52;100.00
6680;BME280;3376;42.664;23.346;2023-06-22T05:11:24;95036.31;;;21.70;100.00
6680;BME280;3376;42.664;23.346;2023-06-22T05:13:51;95044.72;;;21.78;100.00
6680;BME280;3376;42.664;23.346;2023-06-22T05:16:18;95047.00;;;21.86;100.00
6680;BME280;3376;42.664;23.346;2023-06-22T05:18:50;94904.78;;;21.11;99.02
6680;BME280;3376;42.664;23.346;2023-06-22T05:21:17;95038.81;;;21.99;97.09
6680;BME280;3376;42.664;23.346;2023-06-22T05:23:44;95037.22;;;21.98;97.68
6680;BME280;3376;42.664;23.346;2023-06-22T05:26:12;95040.16;;;22.13;97.73
6680;BME280;3376;42.664;23.346;2023-06-22T05:28:39;95048.84;;;22.26;97.75
6680;BME280;3376;42.664;23.346;2023-06-22T05:31:06;95050.88;;;22.35;96.58
6680;BME280;3376;42.664;23.346;2023-06-22T05:33:32;95045.47;;;22.42;97.29
6680;BME280;3376;42.664;23.346;2023-06-22T05:35:59;95053.13;;;22.55;97.92
6680;BME280;3376;42.664;23.346;2023-06-22T05:38:26;95064.47;;;22.67;96.79
6680;BME280;3376;42.664;23.346;2023-06-22T05:40:53;95062.31;;;22.80;94.79
6680;BME280;3376;42.664;23.346;2023-06-22T05:43:21;95065.22;;;22.79;94.42
6680;BME280;3376;42.664;23.346;2023-06-22T05:45:48;95076.38;;;22.97;93.41
6680;BME280;3376;42.664;23.346;2023-06-22T05:48:15;95089.84;;;23.12;92.22
6680;BME280;3376;42.664;23.346;2023-06-22T05:50:42;95083.03;;;23.16;90.92
6680;BME280;3376;42.664;23.346;2023-06-22T05:53:08;95079.56;;;23.27;94.04
6680;BME280;3376;42.664;23.346;2023-06-22T05:55:35;95085.22;;;23.86;99.44
6680;BME280;3376;42.664;23.346;2023-06-22T05:58:02;95087.03;;;24.18;87.73
6680;BME280;3376;42.664;23.346;2023-06-22T06:00:31;95091.03;;;24.42;85.20
6680;BME280;3376;42.664;23.346;2023-06-22T06:02:58;95087.44;;;24.54;83.17
6680;BME280;3376;42.664;23.346;2023-06-22T06:05:28;95069.94;;;24.53;86.71
6680;BME280;3376;42.664;23.346;2023-06-22T06:07:55;95074.75;;;24.56;82.05
6680;BME280;3376;42.664;23.346;2023-06-22T06:10:22;95078.44;;;24.55;82.58
6680;BME280;3376;42.664;23.346;2023-06-22T06:12:49;95075.78;;;24.55;85.86
6680;BME280;3376;42.664;23.346;2023-06-22T06:15:16;95064.09;;;24.51;85.34
6680;BME280;3376;42.664;23.346;2023-06-22T06:17:48;95070.56;;;24.60;85.18
6680;BME280;3376;42.664;23.346;2023-06-22T06:20:15;95078.25;;;24.83;81.19
6680;BME280;3376;42.664;23.346;2023-06-22T06:22:42;95070.91;;;24.90;83.30
6680;BME280;3376;42.664;23.346;2023-06-22T06:25:09;95077.50;;;25.14;79.11
6680;BME280;3376;42.664;23.346;2023-06-22T06:27:41;95065.09;;;25.19;80.27
6680;BME280;3376;42.664;23.346;2023-06-22T06:30:09;95071.44;;;25.45;78.76
6680;BME280;3376;42.664;23.346;2023-06-22T06:32:36;95076.47;;;25.46;78.89
6680;BME280;3376;42.664;23.346;2023-06-22T06:35:06;95077.84;;;25.54;77.58
6680;BME280;3376;42.664;23.346;2023-06-22T06:37:35;95082.00;;;25.77;75.19
6680;BME280;3376;42.664;23.346;2023-06-22T06:40:03;95066.38;;;25.85;72.22
6680;BME280;3376;42.664;23.346;2023-06-22T06:42:32;95060.91;;;25.60;71.70
6680;BME280;3376;42.664;23.346;2023-06-22T06:44:58;95043.75;;;25.36;72.41
6680;BME280;3376;42.664;23.346;2023-06-22T06:47:25;95051.03;;;25.50;73.58
6680;BME280;3376;42.664;23.346;2023-06-22T06:49:52;95052.69;;;25.62;73.86
6680;BME280;3376;42.664;23.346;2023-06-22T06:52:20;95050.06;;;25.67;73.39
6680;BME280;3376;42.664;23.346;2023-06-22T06:54:47;94959.94;;;25.40;72.31
6680;BME280;3376;42.664;23.346;2023-06-22T06:57:14;95044.22;;;26.06;73.34
6680;BME280;3376;42.664;23.346;2023-06-22T06:59:40;95036.44;;;25.95;73.93
6680;BME280;3376;42.664;23.346;2023-06-22T07:02:08;95044.41;;;25.95;73.83
6680;BME280;3376;42.664;23.346;2023-06-22T07:04:35;95035.66;;;25.99;71.35
6680;BME280;3376;42.664;23.346;2023-06-22T07:07:04;95043.72;;;26.09;72.98
6680;BME280;3376;42.664;23.346;2023-06-22T07:09:32;95040.59;;;26.22;72.99
6680;BME280;3376;42.664;23.346;2023-06-22T07:11:59;95048.34;;;26.39;72.22
6680;BME280;3376;42.664;23.346;2023-06-22T07:14:26;95053.03;;;26.79;71.06
6680;BME280;3376;42.664;23.346;2023-06-22T07:16:53;95024.34;;;27.01;68.10
6680;BME280;3376;42.664;23.346;2023-06-22T07:19:24;95038.75;;;27.30;67.55
6680;BME280;3376;42.664;23.346;2023-06-22T07:21:52;95027.28;;;27.44;64.78
6680;BME280;3376;42.664;23.346;2023-06-22T07:24:19;95044.03;;;27.85;62.88
6680;BME280;3376;42.664;23.346;2023-06-22T07:26:47;95045.34;;;27.98;62.76
6680;BME280;3376;42.664;23.346;2023-06-22T07:29:15;95042.41;;;27.89;62.90
6680;BME280;3376;42.664;23.346;2023-06-22T07:31:42;95045.34;;;27.98;64.11
6680;BME280;3376;42.664;23.346;2023-06-22T07:34:09;95045.06;;;28.09;63.80
6680;BME280;3376;42.664;23.346;2023-06-22T07:36:36;95046.09;;;28.08;63.04
6680;BME280;3376;42.664;23.346;2023-06-22T07:39:03;95040.97;;;28.32;62.20
6680;BME280;3376;42.664;23.346;2023-06-22T07:41:30;95034.28;;;28.39;60.47
6680;BME280;3376;42.664;23.346;2023-06-22T07:43:58;95046.53;;;28.45;60.44
6680;BME280;3376;42.664;23.346;2023-06-22T07:46:25;95052.44;;;28.32;60.98
6680;BME280;3376;42.664;23.346;2023-06-22T07:48:52;95050.81;;;28.36;60.89
6680;BME280;3376;42.664;23.346;2023-06-22T07:51:18;95054.53;;;28.35;61.29
6680;BME280;3376;42.664;23.346;2023-06-22T07:53:45;95045.69;;;28.50;60.88
6680;BME280;3376;42.664;23.346;2023-06-22T07:56:12;95014.53;;;28.50;61.73
6680;BME280;3376;42.664;23.346;2023-06-22T07:58:44;95044.38;;;28.52;60.59
6680;BME280;3376;42.664;23.346;2023-06-22T08:01:12;95043.19;;;28.73;60.19
6680;BME280;3376;42.664;23.346;2023-06-22T08:03:39;95049.34;;;28.74;58.86
6680;BME280;3376;42.664;23.346;2023-06-22T08:06:06;95049.59;;;28.77;58.68
6680;BME280;3376;42.664;23.346;2023-06-22T08:08:34;95032.00;;;28.71;58.60
6680;BME280;3376;42.664;23.346;2023-06-22T08:11:01;95043.09;;;28.88;59.04
6680;BME280;3376;42.664;23.346;2023-06-22T08:13:28;95037.53;;;29.29;58.38
6680;BME280;3376;42.664;23.346;2023-06-22T08:15:55;95042.88;;;29.57;57.47
6680;BME280;3376;42.664;23.346;2023-06-22T08:18:23;94981.22;;;29.25;53.95
6680;BME280;3376;42.664;23.346;2023-06-22T08:20:50;95019.59;;;29.63;52.83
6680;BME280;3376;42.664;23.346;2023-06-22T08:23:17;95018.66;;;29.82;52.54
6680;BME280;3376;42.664;23.346;2023-06-22T08:25:43;95028.94;;;29.94;53.92
6680;BME280;3376;42.664;23.346;2023-06-22T08:28:10;95020.19;;;30.12;53.71
6680;BME280;3376;42.664;23.346;2023-06-22T08:30:38;95017.09;;;30.00;52.30
6680;BME280;3376;42.664;23.346;2023-06-22T08:33:05;95016.81;;;29.78;52.86
6680;BME280;3376;42.664;23.346;2023-06-22T08:35:33;95022.50;;;29.95;52.81
6680;BME280;3376;42.664;23.346;2023-06-22T08:38:00;95026.63;;;30.11;51.17
6680;BME280;3376;42.664;23.346;2023-06-22T08:40:27;95030.53;;;30.24;51.76
6680;BME280;3376;42.664;23.346;2023-06-22T08:42:54;95031.81;;;30.26;53.59
6680;BME280;3376;42.664;23.346;2023-06-22T08:45:21;95021.84;;;30.08;54.96
6680;BME280;3376;42.664;23.346;2023-06-22T08:47:48;95028.38;;;29.97;55.75
6680;BME280;3376;42.664;23.346;2023-06-22T08:50:15;95027.25;;;29.74;55.33
6680;BME280;3376;42.664;23.346;2023-06-22T08:52:43;95030.56;;;29.61;56.42
6680;BME280;3376;42.664;23.346;2023-06-22T08:55:11;95010.50;;;29.64;56.75
6680;BME280;3376;42.664;23.346;2023-06-22T08:57:38;95007.03;;;29.92;54.89
6680;BME280;3376;42.664;23.346;2023-06-22T09:00:07;95018.47;;;30.45;54.04
6680;BME280;3376;42.664;23.346;2023-06-22T09:02:42;95004.84;;;30.65;52.72
6680;BME280;3376;42.664;23.346;2023-06-22T09:05:09;95013.13;;;31.05;50.23
6680;BME280;3376;42.664;23.346;2023-06-22T09:07:36;95008.69;;;31.33;49.66
6680;BME280;3376;42.664;23.346;2023-06-22T09:10:05;95005.88;;;31.57;47.90
6680;BME280;3376;42.664;23.346;2023-06-22T09:12:32;95006.69;;;31.57;46.89
6680;BME280;3376;42.664;23.346;2023-06-22T09:14:59;95010.13;;;31.58;45.78
6680;BME280;3376;42.664;23.346;2023-06-22T09:17:26;94996.31;;;31.51;46.17
6680;BME280;3376;42.664;23.346;2023-06-22T09:19:53;95006.81;;;31.66;45.93
6680;BME280;3376;42.664;23.346;2023-06-22T09:22:20;95009.16;;;31.54;46.37
6680;BME280;3376;42.664;23.346;2023-06-22T09:24:47;95011.00;;;31.21;46.15
6680;BME280;3376;42.664;23.346;2023-06-22T09:27:15;95012.34;;;31.37;47.23
6680;BME280;3376;42.664;23.346;2023-06-22T09:29:42;95014.69;;;31.44;45.64
6680;BME280;3376;42.664;23.346;2023-06-22T09:32:09;95018.06;;;31.49;45.81
6680;BME280;3376;42.664;23.346;2023-06-22T09:34:35;95020.66;;;31.54;45.56
6680;BME280;3376;42.664;23.346;2023-06-22T09:37:02;95011.63;;;31.50;45.38
6680;BME280;3376;42.664;23.346;2023-06-22T09:39:29;95010.41;;;31.43;46.10
6680;BME280;3376;42.664;23.346;2023-06-22T09:41:57;95012.41;;;31.51;45.90
6680;BME280;3376;42.664;23.346;2023-06-22T09:44:26;95018.34;;;31.48;47.32
6680;BME280;3376;42.664;23.346;2023-06-22T09:46:53;94996.59;;;31.36;46.00
6680;BME280;3376;42.664;23.346;2023-06-22T09:49:19;95011.44;;;31.60;45.83
6680;BME280;3376;42.664;23.346;2023-06-22T09:51:46;95011.38;;;31.79;45.21
6680;BME280;3376;42.664;23.346;2023-06-22T09:54:13;95006.97;;;31.88;45.51
6680;BME280;3376;42.664;23.346;2023-06-22T09:56:39;95004.19;;;32.06;44.63
6680;BME280;3376;42.664;23.346;2023-06-22T09:59:06;94995.25;;;32.11;44.08
6680;BME280;3376;42.664;23.346;2023-06-22T10:01:34;94999.41;;;32.31;45.13
6680;BME280;3376;42.664;23.346;2023-06-22T10:04:02;94968.63;;;32.14;45.29
6680;BME280;3376;42.664;23.346;2023-06-22T10:06:28;94992.84;;;32.50;44.04
6680;BME280;3376;42.664;23.346;2023-06-22T10:08:55;94992.66;;;32.47;43.74
6680;BME280;3376;42.664;23.346;2023-06-22T10:11:22;94988.09;;;31.93;43.71
6680;BME280;3376;42.664;23.346;2023-06-22T10:13:54;94943.00;;;31.36;44.35
6680;BME280;3376;42.664;23.346;2023-06-22T10:16:21;94990.50;;;31.62;44.36
6680;BME280;3376;42.664;23.346;2023-06-22T10:18:49;94983.25;;;31.63;44.89
6680;BME280;3376;42.664;23.346;2023-06-22T10:21:15;94982.50;;;31.76;45.40
6680;BME280;3376;42.664;23.346;2023-06-22T10:23:42;94984.56;;;31.79;44.75
6680;BME280;3376;42.664;23.346;2023-06-22T10:26:09;94978.09;;;31.80;44.21
6680;BME280;3376;42.664;23.346;2023-06-22T10:28:36;94974.97;;;31.78;44.67
6680;BME280;3376;42.664;23.346;2023-06-22T10:31:02;94987.78;;;31.94;44.25
6680;BME280;3376;42.664;23.346;2023-06-22T10:33:29;94971.75;;;31.62;43.49
6680;BME280;3376;42.664;23.346;2023-06-22T10:35:57;94976.13;;;31.72;43.37
6680;BME280;3376;42.664;23.346;2023-06-22T10:38:24;94868.25;;;31.07;42.58
6680;BME280;3376;42.664;23.346;2023-06-22T10:40:51;94976.94;;;31.72;42.94
6680;BME280;3376;42.664;23.346;2023-06-22T10:43:18;94973.84;;;31.79;43.62
6680;BME280;3376;42.664;23.346;2023-06-22T10:45:45;94981.88;;;31.79;41.86
6680;BME280;3376;42.664;23.346;2023-06-22T10:48:12;94967.25;;;31.90;42.29
6680;BME280;3376;42.664;23.346;2023-06-22T10:50:38;94965.53;;;32.21;42.48
6680;BME280;3376;42.664;23.346;2023-06-22T10:53:07;94967.72;;;32.33;42.26
6680;BME280;3376;42.664;23.346;2023-06-22T10:55:33;94965.94;;;32.42;42.10
6680;BME280;3376;42.664;23.346;2023-06-22T10:58:00;94964.97;;;32.10;41.48
6680;BME280;3376;42.664;23.346;2023-06-22T11:00:27;94963.63;;;31.81;42.28
6680;BME280;3376;42.664;23.346;2023-06-22T11:02:54;94961.53;;;31.64;43.10
6680;BME280;3376;42.664;23.346;2023-06-22T11:05:20;94958.66;;;31.61;43.36
6680;BME280;3376;42.664;23.346;2023-06-22T11:07:47;94947.03;;;31.52;44.04
6680;BME280;3376;42.664;23.346;2023-06-22T11:10:16;94942.25;;;31.17;43.45
6680;BME280;3376;42.664;23.346;2023-06-22T11:12:43;94958.47;;;31.06;43.19
6680;BME280;3376;42.664;23.346;2023-06-22T11:15:10;94951.75;;;31.09;44.35
6680;BME280;3376;42.664;23.346;2023-06-22T11:17:36;94955.53;;;31.40;44.18
6680;BME280;3376;42.664;23.346;2023-06-22T11:20:04;94954.88;;;31.62;43.30
6680;BME280;3376;42.664;23.346;2023-06-22T11:22:36;94947.34;;;31.64;43.10
6680;BME280;3376;42.664;23.346;2023-06-22T11:25:03;94949.06;;;31.87;42.84
6680;BME280;3376;42.664;23.346;2023-06-22T11:27:31;94940.66;;;31.93;42.60
6680;BME280;3376;42.664;23.346;2023-06-22T11:29:58;94940.25;;;32.00;41.09
6680;BME280;3376;42.664;23.346;2023-06-22T11:32:26;94927.13;;;31.98;41.97
6680;BME280;3376;42.664;23.346;2023-06-22T11:34:52;94933.03;;;32.36;40.79
6680;BME280;3376;42.664;23.346;2023-06-22T11:37:21;94942.09;;;32.40;42.04
6680;BME280;3376;42.664;23.346;2023-06-22T11:39:47;94925.28;;;32.35;41.19
6680;BME280;3376;42.664;23.346;2023-06-22T11:42:14;94933.84;;;32.23;41.05
6680;BME280;3376;42.664;23.346;2023-06-22T11:44:43;94914.50;;;32.12;41.32
6680;BME280;3376;42.664;23.346;2023-06-22T11:47:10;94935.44;;;31.97;42.15
6680;BME280;3376;42.664;23.346;2023-06-22T11:49:37;94920.56;;;31.91;42.83
6680;BME280;3376;42.664;23.346;2023-06-22T11:52:05;94886.00;;;31.76;42.81
6680;BME280;3376;42.664;23.346;2023-06-22T11:54:32;94920.34;;;32.14;41.74
6680;BME280;3376;42.664;23.346;2023-06-22T11:56:59;94912.53;;;32.04;40.75
6680;BME280;3376;42.664;23.346;2023-06-22T11:59:25;94917.78;;;32.09;41.08
6680;BME280;3376;42.664;23.346;2023-06-22T12:01:53;94922.72;;;32.16;41.92
6680;BME280;3376;42.664;23.346;2023-06-22T12:04:20;94925.63;;;32.06;40.44
6680;BME280;3376;42.664;23.346;2023-06-22T12:06:47;94923.16;;;31.96;43.77
6680;BME280;3376;42.664;23.346;2023-06-22T12:09:14;94915.81;;;31.88;43.87
6680;BME280;3376;42.664;23.346;2023-06-22T12:11:41;94810.94;;;31.22;42.73
6680;BME280;3376;42.664;23.346;2023-06-22T12:14:08;94926.25;;;31.89;41.73
6680;BME280;3376;42.664;23.346;2023-06-22T12:16:34;94911.09;;;31.66;42.32
6680;BME280;3376;42.664;23.346;2023-06-22T12:19:03;94937.59;;;31.54;42.57
6680;BME280;3376;42.664;23.346;2023-06-22T12:21:29;94912.44;;;31.23;43.72
6680;BME280;3376;42.664;23.346;2023-06-22T12:23:56;94929.56;;;30.90;47.23
6680;BME280;3376;42.664;23.346;2023-06-22T12:26:23;94913.25;;;30.54;50.21
6680;BME280;3376;42.664;23.346;2023-06-22T12:28:50;94939.44;;;30.15;50.56
6680;BME280;3376;42.664;23.346;2023-06-22T12:31:17;94946.00;;;29.80;51.55
6680;BME280;3376;42.664;23.346;2023-06-22T12:33:44;94968.34;;;29.61;53.07
6680;BME280;3376;42.664;23.346;2023-06-22T12:36:12;94871.53;;;28.59;55.71
6680;BME280;3376;42.664;23.346;2023-06-22T12:38:38;94973.16;;;28.97;59.22
6680;BME280;3376;42.664;23.346;2023-06-22T12:41:05;94972.19;;;28.82;57.86
6680;BME280;3376;42.664;23.346;2023-06-22T12:43:32;94971.88;;;28.50;62.12
6680;BME280;3376;42.664;23.346;2023-06-22T12:45:59;94968.75;;;28.33;61.97
6680;BME280;3376;42.664;23.346;2023-06-22T12:48:26;94964.66;;;27.92;65.94
6680;BME280;3376;42.664;23.346;2023-06-22T12:50:53;94955.69;;;27.48;69.51
6680;BME280;3376;42.664;23.346;2023-06-22T12:53:21;94987.63;;;27.28;72.17
6680;BME280;3376;42.664;23.346;2023-06-22T12:55:49;94998.81;;;27.20;73.43
6680;BME280;3376;42.664;23.346;2023-06-22T12:58:15;95003.88;;;27.06;74.79
6680;BME280;3376;42.664;23.346;2023-06-22T13:00:42;94993.97;;;26.72;76.47
6680;BME280;3376;42.664;23.346;2023-06-22T13:03:09;94988.81;;;26.35;78.52
6680;BME280;3376;42.664;23.346;2023-06-22T13:05:36;94994.63;;;26.27;82.37
6680;BME280;3376;42.664;23.346;2023-06-22T13:08:03;94996.22;;;26.23;83.57
6680;BME280;3376;42.664;23.346;2023-06-22T13:10:32;94984.25;;;26.15;85.43